Time;durP1;ratioP1;P1;durP2;ratioP2;P2;SDS_P1;SDS_P2;PMS_P1;PMS_P2;Temp;Humidity;BMP_temperature;BMP_pressure;BME280_temperature;BME280_humidity;BME280_pressure;Samples;Min_cycle;Max_cycle;Signal;HPM_P1;HPM_P2
2020/12/14 00:02:24;;;;;;;5.77;4.63;;;5.90;95.40;;;;;;4956261;28;20209;-73
2020/12/14 00:04:49;;;;;;;10.27;4.37;;;5.80;95.50;;;;;;4936733;29;20183;-73
2020/12/14 00:07:15;;;;;;;5.07;4.57;;;5.80;95.70;;;;;;4962441;28;20198;-73
2020/12/14 00:09:41;;;;;;;5.10;4.47;;;5.80;95.70;;;;;;4956661;28;20183;-73
2020/12/14 00:12:07;;;;;;;6.67;4.33;;;5.70;95.80;;;;;;4963868;28;20590;-73
2020/12/14 00:14:32;;;;;;;6.57;4.33;;;5.70;95.90;;;;;;4958870;28;20725;-73
2020/12/14 00:16:58;;;;;;;4.27;3.97;;;5.60;96.10;;;;;;4951706;28;20205;-73
2020/12/14 00:19:23;;;;;;;6.07;4.20;;;5.60;96.20;;;;;;4939327;29;20190;-73
2020/12/14 00:21:53;;;;;;;6.33;4.13;;;5.50;96.40;;;;;;4934646;28;20401;-72
2020/12/14 00:24:20;;;;;;;6.20;4.30;;;5.50;96.40;;;;;;4946793;29;20193;-73
2020/12/14 00:26:46;;;;;;;6.63;4.63;;;5.50;96.50;;;;;;4939005;28;20229;-73
2020/12/14 00:29:11;;;;;;;6.37;4.63;;;5.60;96.50;;;;;;4965092;28;20229;-74
2020/12/14 00:31:37;;;;;;;5.47;4.20;;;5.50;96.50;;;;;;4952056;28;20198;-73
2020/12/14 00:34:03;;;;;;;5.27;4.37;;;5.60;96.40;;;;;;4964956;28;20600;-73
2020/12/14 00:36:28;;;;;;;5.63;3.97;;;5.50;96.40;;;;;;4967558;28;20265;-73
2020/12/14 00:38:54;;;;;;;8.00;4.53;;;5.50;96.50;;;;;;4966129;28;20198;-73
2020/12/14 00:41:21;;;;;;;4.83;4.10;;;5.50;96.50;;;;;;4967403;28;20221;-73
2020/12/14 00:43:47;;;;;;;4.70;4.30;;;5.50;96.50;;;;;;4955102;28;20249;-73
2020/12/14 00:46:14;;;;;;;4.17;3.77;;;5.50;96.40;;;;;;4964338;28;20194;-73
2020/12/14 00:48:41;;;;;;;5.50;3.53;;;5.50;96.40;;;;;;4952203;28;20183;-73
2020/12/14 00:51:07;;;;;;;5.13;3.90;;;5.50;96.20;;;;;;4961918;28;20213;-73
2020/12/14 00:53:33;;;;;;;4.37;3.27;;;5.50;96.10;;;;;;4954440;28;21000;-73
2020/12/14 00:56:04;;;;;;;3.83;3.43;;;5.40;96.20;;;;;;4966453;28;20190;-73
2020/12/14 00:58:30;;;;;;;7.77;3.37;;;5.40;96.30;;;;;;4964740;28;20225;-73
2020/12/14 01:00:56;;;;;;;5.93;4.20;;;5.40;96.30;;;;;;4955737;28;20661;-73
2020/12/14 01:03:23;;;;;;;5.87;4.13;;;5.40;96.20;;;;;;4962688;28;20195;-73
2020/12/14 01:05:50;;;;;;;5.53;4.10;;;5.40;96.30;;;;;;4964525;28;20269;-73
2020/12/14 01:08:16;;;;;;;3.97;3.40;;;5.40;96.30;;;;;;4960706;28;20971;-73
2020/12/14 01:10:42;;;;;;;3.77;3.40;;;5.30;96.50;;;;;;4966799;28;20171;-73
2020/12/14 01:13:08;;;;;;;4.77;4.00;;;5.30;96.50;;;;;;4963724;28;20196;-73
2020/12/14 01:15:34;;;;;;;8.90;5.00;;;5.30;96.50;;;;;;4947404;29;20237;-73
2020/12/14 01:17:59;;;;;;;4.47;4.07;;;5.30;96.60;;;;;;4948341;28;20222;-73
2020/12/14 01:20:25;;;;;;;5.03;3.67;;;5.20;96.60;;;;;;4932094;29;20229;-73
2020/12/14 01:22:51;;;;;;;4.37;3.97;;;5.20;96.60;;;;;;4957521;28;20223;-73
2020/12/14 01:25:16;;;;;;;3.33;2.83;;;5.20;96.70;;;;;;4966328;28;20265;-73
2020/12/14 01:27:42;;;;;;;5.03;3.67;;;5.20;96.70;;;;;;4963588;28;20183;-73
2020/12/14 01:30:09;;;;;;;6.83;4.17;;;5.20;96.70;;;;;;4966928;28;20267;-73
2020/12/14 01:32:35;;;;;;;6.87;4.03;;;5.20;96.60;;;;;;4955683;28;20705;-73
2020/12/14 01:35:00;;;;;;;6.13;3.67;;;5.20;96.60;;;;;;4930123;29;20211;-73
2020/12/14 01:37:26;;;;;;;4.33;3.93;;;5.20;96.60;;;;;;4947442;28;20278;-73
2020/12/14 01:39:52;;;;;;;4.30;3.37;;;5.30;96.60;;;;;;4965545;28;20653;-73
2020/12/14 01:42:22;;;;;;;4.57;3.57;;;5.30;96.50;;;;;;4964079;28;20724;-73
2020/12/14 01:44:51;;;;;;;3.70;3.33;;;5.30;96.40;;;;;;4963725;28;20202;-73
2020/12/14 01:47:30;;;;;;;3.87;3.57;;;5.30;96.30;;;;;;4930901;28;20287;-73
2020/12/14 01:49:58;;;;;;;4.90;3.87;;;5.30;96.20;;;;;;4963334;28;21016;-73
2020/12/14 01:52:24;;;;;;;3.70;2.83;;;5.30;96.20;;;;;;4936616;29;20988;-73
2020/12/14 01:54:53;;;;;;;4.90;4.00;;;5.30;96.20;;;;;;4953594;28;20205;-73
2020/12/14 01:57:19;;;;;;;3.90;3.47;;;5.20;96.10;;;;;;4964894;28;20550;-74
2020/12/14 01:59:46;;;;;;;4.07;3.70;;;5.20;96.30;;;;;;4963729;28;20273;-73
2020/12/14 02:02:13;;;;;;;3.97;3.43;;;5.20;96.20;;;;;;4958610;28;20217;-74
2020/12/14 02:04:39;;;;;;;5.27;3.73;;;5.20;96.30;;;;;;4961311;28;20178;-73
2020/12/14 02:07:05;;;;;;;3.50;3.00;;;5.20;96.40;;;;;;4959176;28;21066;-74
2020/12/14 02:09:31;;;;;;;4.63;3.90;;;5.20;96.40;;;;;;4964742;28;21119;-74
2020/12/14 02:11:57;;;;;;;4.00;3.60;;;5.20;96.40;;;;;;4960579;28;20186;-74
2020/12/14 02:14:23;;;;;;;4.17;3.37;;;5.20;96.50;;;;;;4964189;28;20243;-73
2020/12/14 02:16:48;;;;;;;4.87;3.30;;;5.20;96.50;;;;;;4951675;28;20650;-73
2020/12/14 02:19:14;;;;;;;4.30;3.17;;;5.20;96.50;;;;;;4955106;28;20249;-73
2020/12/14 02:21:40;;;;;;;3.73;3.17;;;5.10;96.50;;;;;;4965200;28;20602;-73
2020/12/14 02:24:16;;;;;;;4.47;3.73;;;5.00;96.50;;;;;;4949495;28;20187;-74
2020/12/14 02:26:48;;;;;;;6.50;3.80;;;5.10;96.50;;;;;;4946738;28;20201;-74
2020/12/14 02:29:17;;;;;;;5.07;3.80;;;5.00;96.40;;;;;;4964572;28;20274;-73
2020/12/14 02:31:43;;;;;;;5.17;3.73;;;5.00;96.50;;;;;;4948981;28;20262;-74
2020/12/14 02:34:09;;;;;;;4.20;3.50;;;5.00;96.60;;;;;;4964483;28;20194;-73
2020/12/14 02:36:35;;;;;;;3.97;3.67;;;4.90;96.70;;;;;;4938497;29;20233;-74
2020/12/14 02:39:04;;;;;;;4.57;3.57;;;5.00;96.70;;;;;;4950837;28;20194;-73
2020/12/14 02:41:29;;;;;;;6.57;3.53;;;4.90;96.90;;;;;;4963085;28;20297;-74
2020/12/14 02:43:55;;;;;;;5.13;3.80;;;4.90;96.90;;;;;;4963312;28;20576;-74
2020/12/14 02:46:21;;;;;;;3.93;3.50;;;4.90;96.90;;;;;;4961589;28;20179;-74
2020/12/14 02:48:47;;;;;;;4.77;3.13;;;4.90;96.90;;;;;;4965725;28;20698;-74
2020/12/14 02:51:18;;;;;;;4.97;3.83;;;4.90;96.70;;;;;;4956411;28;20187;-73
2020/12/14 02:53:44;;;;;;;3.50;3.17;;;4.90;96.60;;;;;;4929884;29;21072;-73
2020/12/14 02:56:09;;;;;;;4.07;3.53;;;4.90;96.50;;;;;;4947559;28;20191;-73
2020/12/14 02:58:35;;;;;;;5.20;3.53;;;5.00;96.60;;;;;;4957003;28;20199;-73
2020/12/14 03:01:01;;;;;;;2.53;2.33;;;5.00;96.40;;;;;;4932023;29;20214;-73
2020/12/14 03:03:26;;;;;;;4.00;3.70;;;5.00;96.40;;;;;;4934918;28;20324;-73
2020/12/14 03:05:52;;;;;;;5.10;2.97;;;5.00;96.30;;;;;;4948528;28;20185;-73
2020/12/14 03:08:18;;;;;;;5.90;4.00;;;5.00;96.30;;;;;;4954395;28;20269;-73
2020/12/14 03:10:43;;;;;;;6.73;3.50;;;5.00;96.30;;;;;;4941394;28;20195;-73
2020/12/14 03:13:09;;;;;;;4.33;3.40;;;5.00;96.30;;;;;;4965001;28;20628;-73
2020/12/14 03:15:34;;;;;;;3.33;3.13;;;5.00;96.30;;;;;;4944357;29;20180;-73
2020/12/14 03:18:00;;;;;;;5.33;3.93;;;5.00;96.30;;;;;;4958109;28;20191;-73
2020/12/14 03:20:26;;;;;;;7.33;3.20;;;5.00;96.30;;;;;;4938956;29;20183;-73
2020/12/14 03:22:51;;;;;;;5.07;2.97;;;5.00;96.40;;;;;;4965389;28;20288;-73
2020/12/14 03:25:17;;;;;;;6.40;3.63;;;5.00;96.30;;;;;;4932922;29;20290;-73
2020/12/14 03:27:43;;;;;;;4.10;3.77;;;5.00;96.40;;;;;;4951100;28;20190;-72
2020/12/14 03:30:10;;;;;;;4.87;3.53;;;5.00;96.40;;;;;;4954561;28;20183;-73
2020/12/14 03:32:35;;;;;;;4.10;3.80;;;5.00;96.20;;;;;;4967108;28;20572;-73
2020/12/14 03:35:01;;;;;;;3.80;3.50;;;4.90;96.50;;;;;;4965426;28;20197;-73
2020/12/14 03:37:28;;;;;;;4.90;3.50;;;4.80;96.70;;;;;;4955049;28;20191;-73
2020/12/14 03:39:53;;;;;;;3.97;3.47;;;4.80;96.90;;;;;;4967029;28;20186;-73
2020/12/14 03:42:19;;;;;;;4.93;3.97;;;4.70;97.20;;;;;;4967447;28;20209;-73
2020/12/14 03:44:45;;;;;;;4.07;3.73;;;4.70;97.10;;;;;;4953400;28;20265;-73
2020/12/14 03:47:11;;;;;;;4.07;3.73;;;4.70;97.20;;;;;;4938358;28;20186;-73
2020/12/14 03:49:36;;;;;;;3.33;3.13;;;4.70;97.20;;;;;;4953183;28;20282;-74
2020/12/14 03:52:02;;;;;;;4.87;3.57;;;4.70;97.50;;;;;;4965651;28;20210;-74
2020/12/14 03:54:28;;;;;;;5.47;4.10;;;4.60;97.60;;;;;;4966794;28;20853;-73
2020/12/14 03:56:57;;;;;;;6.63;3.67;;;4.60;97.70;;;;;;4965665;28;20205;-73
2020/12/14 03:59:23;;;;;;;4.47;3.30;;;4.60;97.60;;;;;;4949488;28;20612;-73
2020/12/14 04:01:54;;;;;;;6.37;4.13;;;4.70;97.60;;;;;;4951536;28;20700;-73
2020/12/14 04:04:20;;;;;;;7.40;4.40;;;4.70;97.50;;;;;;4967733;28;20221;-72
2020/12/14 04:06:45;;;;;;;4.83;4.07;;;4.70;97.50;;;;;;4967479;28;20201;-73
2020/12/14 04:09:11;;;;;;;5.40;4.03;;;4.60;97.20;;;;;;4960986;28;20195;-73
2020/12/14 04:11:36;;;;;;;4.10;3.70;;;4.60;97.40;;;;;;4966265;28;20186;-73
2020/12/14 04:14:02;;;;;;;5.00;3.10;;;4.60;97.40;;;;;;4965769;28;20218;-73
2020/12/14 04:16:28;;;;;;;3.57;3.27;;;4.60;97.40;;;;;;4967269;28;20651;-73
2020/12/14 04:18:54;;;;;;;3.07;2.87;;;4.60;97.20;;;;;;4964802;28;20257;-73
2020/12/14 04:21:19;;;;;;;2.70;2.57;;;4.60;97.10;;;;;;4967178;28;20238;-73
2020/12/14 04:23:45;;;;;;;5.10;4.50;;;4.70;97.00;;;;;;4967214;28;20190;-73
2020/12/14 04:26:14;;;;;;;3.93;3.27;;;4.70;96.90;;;;;;4962392;28;20592;-73
2020/12/14 04:28:40;;;;;;;3.03;2.83;;;4.70;96.70;;;;;;4932632;29;20199;-73
2020/12/14 04:31:06;;;;;;;5.60;3.67;;;4.70;96.60;;;;;;4936395;28;20197;-74
2020/12/14 04:33:31;;;;;;;3.23;2.93;;;4.70;96.60;;;;;;4940261;29;20186;-73
2020/12/14 04:35:57;;;;;;;3.13;2.93;;;4.70;96.50;;;;;;4939549;29;20667;-73
2020/12/14 04:38:23;;;;;;;5.37;3.83;;;4.70;96.50;;;;;;4939351;28;20194;-73
2020/12/14 04:40:49;;;;;;;3.63;2.80;;;4.70;96.60;;;;;;4954758;28;21000;-73
2020/12/14 04:43:15;;;;;;;5.53;3.27;;;4.60;96.60;;;;;;4957799;28;20190;-74
2020/12/14 04:45:43;;;;;;;4.67;3.23;;;4.70;96.60;;;;;;4952350;28;20183;-73
2020/12/14 04:48:09;;;;;;;3.17;2.87;;;4.70;96.50;;;;;;4941077;28;20201;-74
2020/12/14 04:50:38;;;;;;;3.10;2.87;;;4.60;96.60;;;;;;4956435;28;20184;-74
2020/12/14 04:53:04;;;;;;;4.90;3.40;;;4.70;96.60;;;;;;4966451;28;20603;-74
2020/12/14 04:55:35;;;;;;;3.17;2.90;;;4.70;96.60;;;;;;4965621;28;20195;-74
2020/12/14 04:58:02;;;;;;;2.97;2.70;;;4.70;96.50;;;;;;4956258;28;20684;-74
2020/12/14 05:00:27;;;;;;;3.37;2.90;;;4.70;96.30;;;;;;4929963;29;20188;-74
2020/12/14 05:02:57;;;;;;;6.50;3.73;;;4.70;96.20;;;;;;4964123;28;20218;-74
2020/12/14 05:05:24;;;;;;;3.70;3.33;;;4.70;96.30;;;;;;4958502;28;20187;-74
2020/12/14 05:07:49;;;;;;;5.10;3.20;;;4.70;96.20;;;;;;4941258;28;20798;-74
2020/12/14 05:10:21;;;;;;;3.53;2.70;;;4.70;96.10;;;;;;4948790;28;20195;-74
2020/12/14 05:12:46;;;;;;;2.57;2.40;;;4.70;96.20;;;;;;4963573;28;20194;-74
2020/12/14 05:15:16;;;;;;;2.90;2.43;;;4.70;96.20;;;;;;4961816;28;20270;-73
2020/12/14 05:17:41;;;;;;;3.43;2.90;;;4.70;96.10;;;;;;4955485;28;20675;-73
2020/12/14 05:20:18;;;;;;;3.40;3.10;;;4.70;96.10;;;;;;4963661;28;20229;-74
2020/12/14 05:22:57;;;;;;;5.07;3.37;;;4.70;96.00;;;;;;4964848;28;20212;-74
2020/12/14 05:25:23;;;;;;;3.20;2.90;;;4.70;96.00;;;;;;4952513;28;20636;-74
2020/12/14 05:28:00;;;;;;;6.30;3.10;;;4.70;96.10;;;;;;4930042;29;20510;-74
2020/12/14 05:30:33;;;;;;;3.57;3.27;;;4.70;96.00;;;;;;4963015;28;20481;-74
2020/12/14 05:33:00;;;;;;;4.13;3.67;;;4.70;96.00;;;;;;4964776;28;20858;-74
2020/12/14 05:35:37;;;;;;;3.03;2.47;;;4.70;95.80;;;;;;4964408;28;20327;-74
2020/12/14 05:38:14;;;;;;;4.30;3.33;;;4.70;95.80;;;;;;4954440;28;20369;-73
2020/12/14 05:40:41;;;;;;;10.17;5.27;;;4.70;95.80;;;;;;4960275;28;20194;-73
2020/12/14 05:43:12;;;;;;;5.10;3.83;;;4.80;95.90;;;;;;4964402;28;20222;-73
2020/12/14 05:45:39;;;;;;;9.67;3.97;;;4.80;95.50;;;;;;4960215;28;20182;-74
2020/12/14 05:48:21;;;;;;;3.57;3.27;;;4.80;95.50;;;;;;4941475;29;20218;-72
2020/12/14 05:50:48;;;;;;;3.57;3.23;;;4.80;95.50;;;;;;4957915;28;20179;-73
2020/12/14 05:53:19;;;;;;;3.67;3.33;;;4.80;95.30;;;;;;4964057;28;20182;-74
2020/12/14 05:55:46;;;;;;;6.57;4.00;;;4.80;95.30;;;;;;4949954;28;20262;-73
2020/12/14 05:58:14;;;;;;;3.67;2.73;;;4.80;95.40;;;;;;4964001;28;20237;-73
2020/12/14 06:00:45;;;;;;;3.30;3.10;;;4.80;95.40;;;;;;4930007;29;20187;-74
2020/12/14 06:03:11;;;;;;;4.80;2.97;;;4.80;95.50;;;;;;4964995;28;20217;-74
2020/12/14 06:05:38;;;;;;;5.33;3.33;;;4.70;95.70;;;;;;4965389;28;20237;-74
2020/12/14 06:08:17;;;;;;;3.47;3.17;;;4.70;95.70;;;;;;4960826;28;20635;-73
2020/12/14 06:10:45;;;;;;;6.10;3.17;;;4.70;95.70;;;;;;4951121;28;20182;-74
2020/12/14 06:13:21;;;;;;;3.17;2.97;;;4.70;95.50;;;;;;4963345;28;20182;-74
2020/12/14 06:15:50;;;;;;;4.73;3.13;;;4.70;95.40;;;;;;4952561;28;20210;-74
2020/12/14 06:18:21;;;;;;;3.33;2.50;;;4.70;95.40;;;;;;4964513;28;20268;-74
2020/12/14 06:20:47;;;;;;;3.80;3.13;;;4.60;95.60;;;;;;4980353;28;20184;-92
2020/12/14 06:23:15;;;;;;;3.90;3.47;;;4.60;95.70;;;;;;4956644;28;20667;-91
2020/12/14 06:25:42;;;;;;;4.53;4.03;;;4.60;95.80;;;;;;4964962;28;20191;-90
2020/12/14 06:28:27;;;;;;;4.30;3.33;;;4.60;95.80;;;;;;4947025;28;20330;-87
2020/12/14 06:30:53;;;;;;;3.90;3.43;;;4.60;95.80;;;;;;4958116;28;20646;-89
2020/12/14 06:33:32;;;;;;;6.43;3.67;;;4.60;95.80;;;;;;4948761;29;20199;-76
2020/12/14 06:36:17;;;;;;;3.40;3.07;;;4.60;96.00;;;;;;4964467;28;20594;-73
2020/12/14 06:38:44;;;;;;;4.07;3.20;;;4.60;96.00;;;;;;4962383;28;20186;-72
2020/12/14 06:41:11;;;;;;;4.83;3.33;;;4.60;96.00;;;;;;4964571;28;20712;-77
2020/12/14 06:43:37;;;;;;;5.10;2.87;;;4.60;95.90;;;;;;4969182;28;20186;-77
2020/12/14 06:46:03;;;;;;;3.90;3.57;;;4.60;95.90;;;;;;4952191;28;20178;-78
2020/12/14 06:48:38;;;;;;;3.73;3.40;;;4.70;95.90;;;;;;4970028;28;20186;-75
2020/12/14 06:51:05;;;;;;;3.83;2.83;;;4.70;95.90;;;;;;4946999;29;20909;-74
2020/12/14 06:53:52;;;;;;;3.50;3.20;;;4.70;95.80;;;;;;4941072;28;20183;-78
2020/12/14 06:56:40;;;;;;;6.33;3.63;;;4.70;95.90;;;;;;4942928;29;20282;-75
2020/12/14 06:59:28;;;;;;;6.10;4.30;;;4.70;95.90;;;;;;4948389;28;20208;-71
2020/12/14 07:02:01;;;;;;;4.40;4.00;;;4.60;95.90;;;;;;4969819;28;20210;-76
2020/12/14 07:04:33;;;;;;;4.40;4.00;;;4.60;96.00;;;;;;4966678;28;20200;-79
2020/12/14 07:07:04;;;;;;;4.30;3.93;;;4.60;96.10;;;;;;4955438;28;20265;-79
2020/12/14 07:09:32;;;;;;;7.07;4.47;;;4.50;96.30;;;;;;4973493;28;20735;-79
2020/12/14 07:12:10;;;;;;;5.57;4.20;;;4.50;96.50;;;;;;4950302;29;20190;-78
2020/12/14 07:14:44;;;;;;;6.63;4.50;;;4.50;96.50;;;;;;4950957;28;20186;-78
2020/12/14 07:17:29;;;;;;;4.10;3.57;;;4.50;96.40;;;;;;4954515;28;20906;-85
2020/12/14 07:19:56;;;;;;;6.03;4.30;;;4.60;96.40;;;;;;4955221;28;20189;-80
2020/12/14 07:22:49;;;;;;;9.17;4.20;;;4.60;96.50;;;;;;4972346;28;20333;-81
2020/12/14 07:25:23;;;;;;;4.53;3.97;;;4.60;96.20;;;;;;4948783;29;20270;-81
2020/12/14 07:27:49;;;;;;;4.33;3.93;;;4.70;96.10;;;;;;4952094;29;20981;-78
2020/12/14 07:30:18;;;;;;;6.93;5.07;;;4.70;96.00;;;;;;4952996;29;20593;-81
2020/12/14 07:32:45;;;;;;;7.00;5.47;;;4.70;96.00;;;;;;4936799;29;20193;-89
2020/12/14 07:35:11;;;;;;;6.33;5.60;;;4.70;95.90;;;;;;4943634;28;20281;-83
2020/12/14 07:37:37;;;;;;;5.63;4.30;;;4.80;95.80;;;;;;4941955;29;20626;-74
2020/12/14 07:40:08;;;;;;;4.27;3.90;;;4.80;95.90;;;;;;4950211;28;20190;-75
2020/12/14 07:42:36;;;;;;;7.90;5.10;;;4.70;95.80;;;;;;4953266;28;20205;-76
2020/12/14 07:45:07;;;;;;;4.33;3.83;;;4.80;95.90;;;;;;4949810;28;20190;-75
2020/12/14 07:47:32;;;;;;;8.27;5.57;;;4.80;96.00;;;;;;4967263;28;20179;-75
2020/12/14 07:50:25;;;;;;;8.93;4.43;;;4.80;95.90;;;;;;4963728;28;20677;-75
2020/12/14 07:52:55;;;;;;;9.43;4.10;;;4.90;95.90;;;;;;4964645;28;20289;-75
2020/12/14 07:55:22;;;;;;;3.87;3.53;;;4.90;95.50;;;;;;4963372;28;20853;-74
2020/12/14 07:57:49;;;;;;;6.70;3.77;;;4.80;95.80;;;;;;4968429;28;20628;-74
2020/12/14 08:00:19;;;;;;;5.63;3.97;;;4.80;95.90;;;;;;4950562;28;20222;-74
2020/12/14 08:02:45;;;;;;;7.03;3.93;;;4.70;96.40;;;;;;4967755;28;21009;-74
2020/12/14 08:05:19;;;;;;;4.80;4.40;;;4.70;96.60;;;;;;4968205;28;20901;-76
2020/12/14 08:07:53;;;;;;;6.27;4.37;;;4.70;96.80;;;;;;4946747;29;20608;-71
2020/12/14 08:10:37;;;;;;;7.03;5.23;;;4.70;96.90;;;;;;4930783;29;20194;-70
2020/12/14 08:13:11;;;;;;;10.73;7.87;;;4.70;97.00;;;;;;4961612;28;20325;-70
2020/12/14 08:15:40;;;;;;;6.30;5.20;;;4.70;96.90;;;;;;4960290;28;21048;-70
2020/12/14 08:18:11;;;;;;;5.30;4.33;;;4.70;97.30;;;;;;4965846;28;20213;-71
2020/12/14 08:20:42;;;;;;;4.80;3.83;;;4.70;97.40;;;;;;4967141;28;20265;-69
2020/12/14 08:23:22;;;;;;;9.50;5.27;;;4.80;97.40;;;;;;4966746;28;20585;-70
2020/12/14 08:25:52;;;;;;;5.23;4.17;;;4.80;97.30;;;;;;4966115;28;20212;-71
2020/12/14 08:28:29;;;;;;;4.57;4.07;;;4.90;97.20;;;;;;4948691;28;20181;-70
2020/12/14 08:30:55;;;;;;;4.57;4.10;;;4.90;97.10;;;;;;4966706;28;20264;-70
2020/12/14 08:33:21;;;;;;;4.43;4.03;;;5.00;97.10;;;;;;4966980;28;20242;-73
2020/12/14 08:35:51;;;;;;;5.37;4.13;;;5.00;97.00;;;;;;4949600;28;20187;-70
2020/12/14 08:38:23;;;;;;;5.60;3.67;;;5.00;97.10;;;;;;4967533;28;20251;-70
2020/12/14 08:41:04;;;;;;;4.50;3.57;;;5.10;97.00;;;;;;4967149;28;20253;-70
2020/12/14 08:43:33;;;;;;;4.30;3.90;;;5.10;96.70;;;;;;4949726;28;20179;-70
2020/12/14 08:46:05;;;;;;;5.33;3.73;;;5.10;97.00;;;;;;4949261;28;20194;-71
2020/12/14 08:48:54;;;;;;;5.00;3.50;;;5.10;96.80;;;;;;4946302;29;20191;-71
2020/12/14 08:51:33;;;;;;;3.33;3.13;;;5.10;96.60;;;;;;4964271;28;20191;-70
2020/12/14 08:54:14;;;;;;;6.80;4.17;;;5.10;96.50;;;;;;4945830;28;21151;-70
2020/12/14 08:56:41;;;;;;;4.77;4.27;;;5.10;96.30;;;;;;4958526;28;20182;-70
2020/12/14 08:59:13;;;;;;;5.87;4.23;;;5.10;96.50;;;;;;4948646;28;20876;-70
2020/12/14 09:01:39;;;;;;;4.50;4.10;;;5.10;96.40;;;;;;4958666;28;20206;-70
2020/12/14 09:04:05;;;;;;;7.37;4.63;;;5.10;96.60;;;;;;4958863;28;20186;-70
2020/12/14 09:06:36;;;;;;;6.30;3.97;;;5.10;96.70;;;;;;4957499;28;20171;-70
2020/12/14 09:09:10;;;;;;;6.87;4.47;;;5.20;96.90;;;;;;4959926;28;20634;-70
2020/12/14 09:11:57;;;;;;;8.80;5.30;;;5.20;96.80;;;;;;4950585;28;20205;-70
2020/12/14 09:14:25;;;;;;;6.20;4.70;;;5.20;96.60;;;;;;4943208;28;20374;-70
2020/12/14 09:16:53;;;;;;;7.03;5.40;;;5.20;96.60;;;;;;4960300;28;20193;-70
2020/12/14 09:19:23;;;;;;;9.37;5.43;;;5.20;96.60;;;;;;4960962;28;20218;-70
2020/12/14 09:21:50;;;;;;;4.43;3.63;;;5.20;96.70;;;;;;4951212;28;20778;-70
2020/12/14 09:24:21;;;;;;;2.93;2.60;;;5.20;96.70;;;;;;4953424;28;20648;-70
2020/12/14 09:26:49;;;;;;;6.20;4.20;;;5.20;95.70;;;;;;4966191;28;20188;-69
2020/12/14 09:29:15;;;;;;;7.27;5.23;;;5.30;96.20;;;;;;4965106;28;20957;-70
2020/12/14 09:31:55;;;;;;;11.00;5.70;;;5.30;96.40;;;;;;4965748;28;20174;-69
2020/12/14 09:34:22;;;;;;;5.40;4.83;;;5.30;96.20;;;;;;4965840;28;20190;-70
2020/12/14 09:36:52;;;;;;;4.90;4.20;;;5.30;96.60;;;;;;4954700;28;20183;-70
2020/12/14 09:39:19;;;;;;;5.90;4.37;;;5.30;96.50;;;;;;4944312;28;20209;-70
2020/12/14 09:41:45;;;;;;;4.57;4.23;;;5.30;96.20;;;;;;4932312;28;20579;-70
2020/12/14 09:44:11;;;;;;;5.27;4.03;;;5.30;96.50;;;;;;4948508;28;20240;-71
2020/12/14 09:46:36;;;;;;;4.17;2.90;;;5.20;96.50;;;;;;4938627;29;20179;-72
2020/12/14 09:49:02;;;;;;;3.23;2.93;;;5.20;95.80;;;;;;4958196;28;20183;-71
2020/12/14 09:51:28;;;;;;;5.50;3.63;;;5.10;95.20;;;;;;4945042;28;20733;-70
2020/12/14 09:53:55;;;;;;;3.30;3.00;;;5.00;95.40;;;;;;4965255;28;20186;-70
2020/12/14 09:56:22;;;;;;;3.03;2.87;;;5.00;95.80;;;;;;4965590;28;20200;-71
2020/12/14 09:58:49;;;;;;;2.23;2.10;;;5.00;96.30;;;;;;4951002;28;20186;-71
2020/12/14 10:01:15;;;;;;;1.77;1.67;;;4.90;96.40;;;;;;4943234;28;21000;-71
2020/12/14 10:03:41;;;;;;;2.10;1.87;;;4.90;96.00;;;;;;4949420;28;20194;-70
2020/12/14 10:06:10;;;;;;;2.07;1.97;;;4.90;96.10;;;;;;4959375;28;20299;-70
2020/12/14 10:08:36;;;;;;;2.07;1.97;;;4.80;96.40;;;;;;4934993;29;20191;-70
2020/12/14 10:11:02;;;;;;;2.90;2.30;;;4.90;96.40;;;;;;4946522;29;20864;-70
2020/12/14 10:13:28;;;;;;;2.57;2.47;;;4.80;96.20;;;;;;4946972;28;20221;-70
2020/12/14 10:15:53;;;;;;;2.30;1.60;;;4.80;96.20;;;;;;4961901;28;20186;-70
2020/12/14 10:18:19;;;;;;;2.03;1.70;;;4.80;96.30;;;;;;4956155;28;20210;-70
2020/12/14 10:20:45;;;;;;;3.20;2.47;;;4.80;96.50;;;;;;4958493;28;20183;-70
2020/12/14 10:23:12;;;;;;;1.70;1.60;;;4.80;96.40;;;;;;4946546;28;20943;-71
2020/12/14 10:25:38;;;;;;;1.43;1.43;;;4.70;96.20;;;;;;4953312;28;20214;-70
2020/12/14 10:28:05;;;;;;;3.27;2.30;;;4.70;96.20;;;;;;4964227;28;20179;-70
2020/12/14 10:30:31;;;;;;;2.80;2.60;;;4.70;96.60;;;;;;4940571;28;20642;-70
2020/12/14 10:32:57;;;;;;;2.33;2.23;;;4.70;96.70;;;;;;4936676;28;20194;-70
2020/12/14 10:35:24;;;;;;;3.13;2.90;;;4.70;96.70;;;;;;4965526;28;20190;-71
2020/12/14 10:37:50;;;;;;;4.23;3.63;;;4.70;96.80;;;;;;4952016;28;20186;-70
2020/12/14 10:40:16;;;;;;;3.20;3.03;;;4.60;96.90;;;;;;4969323;28;20190;-71
2020/12/14 10:42:42;;;;;;;4.87;3.83;;;4.60;97.00;;;;;;4941023;29;20366;-71
2020/12/14 10:45:09;;;;;;;5.23;4.23;;;4.70;97.50;;;;;;4963314;28;20178;-70
2020/12/14 10:47:36;;;;;;;6.40;5.10;;;4.70;97.30;;;;;;4952852;28;20209;-70
2020/12/14 10:50:03;;;;;;;4.37;3.97;;;4.70;97.50;;;;;;4967973;28;20181;-70
2020/12/14 10:52:28;;;;;;;4.63;4.00;;;4.80;97.50;;;;;;4967390;28;20189;-70
2020/12/14 10:54:56;;;;;;;3.73;3.43;;;4.80;97.40;;;;;;4965348;28;20646;-71
2020/12/14 10:57:21;;;;;;;3.57;3.27;;;4.80;97.30;;;;;;4968607;28;20182;-71
2020/12/14 10:59:47;;;;;;;4.10;3.70;;;4.80;97.20;;;;;;4968448;28;20217;-71
2020/12/14 11:02:13;;;;;;;4.47;2.97;;;4.80;97.20;;;;;;4968484;28;20284;-71
2020/12/14 11:04:38;;;;;;;3.17;2.97;;;4.80;97.10;;;;;;4958666;28;20171;-71
2020/12/14 11:07:08;;;;;;;3.23;2.90;;;4.90;97.20;;;;;;4962344;28;20182;-69
2020/12/14 11:09:35;;;;;;;3.23;3.00;;;5.00;97.10;;;;;;4963497;28;20217;-71
2020/12/14 11:12:04;;;;;;;3.83;3.20;;;5.00;97.00;;;;;;4936664;28;21017;-71
2020/12/14 11:14:31;;;;;;;5.00;4.40;;;5.10;96.70;;;;;;4942657;28;20743;-71
2020/12/14 11:16:57;;;;;;;4.83;4.33;;;5.10;96.60;;;;;;4961037;28;20193;-70
2020/12/14 11:19:22;;;;;;;4.97;4.33;;;5.10;96.10;;;;;;4952165;28;20950;-70
2020/12/14 11:21:55;;;;;;;3.80;3.40;;;5.10;96.20;;;;;;4950008;28;21031;-71
2020/12/14 11:24:24;;;;;;;3.77;3.30;;;5.10;96.40;;;;;;4959206;28;20179;-71
2020/12/14 11:26:50;;;;;;;4.63;3.63;;;5.10;96.60;;;;;;4934257;28;20822;-73
2020/12/14 11:29:16;;;;;;;6.53;3.97;;;5.10;96.80;;;;;;4963177;28;20215;-73
2020/12/14 11:31:43;;;;;;;3.57;3.37;;;5.10;96.60;;;;;;4967628;28;20651;-71
2020/12/14 11:34:09;;;;;;;9.67;4.33;;;5.20;96.80;;;;;;4951514;28;20201;-79
2020/12/14 11:36:35;;;;;;;5.63;4.07;;;5.20;96.90;;;;;;4948337;29;20179;-77
2020/12/14 11:39:00;;;;;;;6.23;3.30;;;5.30;96.90;;;;;;4968567;28;20770;-72
2020/12/14 11:41:28;;;;;;;3.87;3.47;;;5.30;96.90;;;;;;4970338;28;20749;-76
2020/12/14 11:43:55;;;;;;;3.10;2.90;;;5.40;96.90;;;;;;4951741;28;20185;-76
2020/12/14 11:46:21;;;;;;;5.47;3.30;;;5.40;96.40;;;;;;4969299;28;20814;-73
2020/12/14 11:48:47;;;;;;;3.83;3.40;;;5.30;95.80;;;;;;4969081;28;20183;-75
2020/12/14 11:51:13;;;;;;;4.30;3.93;;;5.30;95.70;;;;;;4951251;28;21020;-74
2020/12/14 11:53:39;;;;;;;7.33;4.57;;;5.20;95.70;;;;;;4949677;28;20206;-72
2020/12/14 11:56:05;;;;;;;6.23;5.13;;;5.20;96.00;;;;;;4967885;28;20587;-71
2020/12/14 11:58:30;;;;;;;4.63;4.23;;;5.20;96.30;;;;;;4937852;29;20311;-70
2020/12/14 12:00:56;;;;;;;7.27;4.83;;;5.10;96.60;;;;;;4947683;29;20264;-70
2020/12/14 12:03:22;;;;;;;3.73;3.43;;;5.10;97.00;;;;;;4955887;28;20980;-70
2020/12/14 12:05:47;;;;;;;3.37;3.17;;;5.10;96.80;;;;;;4957202;28;20182;-70
2020/12/14 12:08:14;;;;;;;3.07;2.77;;;5.20;96.70;;;;;;4964901;28;20193;-70
2020/12/14 12:10:40;;;;;;;3.73;2.50;;;5.30;96.50;;;;;;4964857;28;20187;-70
2020/12/14 12:13:06;;;;;;;3.30;2.73;;;5.30;96.40;;;;;;4963728;28;20658;-70
2020/12/14 12:15:32;;;;;;;5.83;3.03;;;5.40;96.10;;;;;;4958914;28;20187;-70
2020/12/14 12:17:58;;;;;;;2.37;2.17;;;5.40;95.90;;;;;;4962052;28;20579;-70
2020/12/14 12:20:24;;;;;;;2.37;2.17;;;5.50;95.90;;;;;;4957413;28;20178;-70
2020/12/14 12:22:49;;;;;;;2.83;2.63;;;5.40;95.60;;;;;;4957131;28;20226;-71
2020/12/14 12:25:15;;;;;;;3.40;3.10;;;5.40;95.60;;;;;;4967319;28;20213;-72
2020/12/14 12:27:41;;;;;;;3.57;2.77;;;5.40;95.70;;;;;;4941553;29;20179;-72
2020/12/14 12:30:07;;;;;;;3.07;2.50;;;5.50;95.90;;;;;;4959559;28;20194;-72
2020/12/14 12:32:32;;;;;;;3.87;3.57;;;5.50;96.10;;;;;;4957782;28;20195;-72
2020/12/14 12:34:58;;;;;;;3.80;3.47;;;5.50;95.90;;;;;;4958723;28;20278;-71
2020/12/14 12:37:24;;;;;;;3.63;3.27;;;5.50;95.80;;;;;;4963963;28;20186;-70
2020/12/14 12:39:50;;;;;;;4.40;3.83;;;5.50;95.50;;;;;;4948059;28;20655;-71
2020/12/14 12:42:17;;;;;;;3.67;3.33;;;5.60;95.30;;;;;;4963944;28;20222;-71
2020/12/14 12:44:44;;;;;;;5.30;4.23;;;5.50;95.20;;;;;;4962345;28;20179;-71
2020/12/14 12:47:10;;;;;;;6.00;4.33;;;5.50;95.10;;;;;;4933983;29;20206;-71
2020/12/14 12:49:36;;;;;;;6.23;3.90;;;5.40;95.40;;;;;;4963120;28;20187;-72
2020/12/14 12:52:01;;;;;;;4.37;3.90;;;5.40;95.40;;;;;;4961345;28;20194;-71
2020/12/14 12:54:28;;;;;;;4.10;3.80;;;5.40;95.60;;;;;;4957670;28;20186;-72
2020/12/14 12:57:03;;;;;;;4.13;3.70;;;5.40;95.90;;;;;;4941544;29;20187;-72
2020/12/14 12:59:28;;;;;;;6.37;4.10;;;5.40;96.00;;;;;;4962729;28;21055;-72
2020/12/14 13:01:54;;;;;;;4.23;3.93;;;5.40;95.80;;;;;;4944183;28;20221;-72
2020/12/14 13:04:20;;;;;;;5.80;4.40;;;5.40;96.10;;;;;;4948844;28;20182;-72